createdAt,value
2022-12-26T00:00:16.370Z,8.50
2022-12-26T00:03:19.170Z,8.38
2022-12-26T00:06:24.040Z,8.46
2022-12-26T00:09:26.606Z,8.44
2022-12-26T00:12:29.252Z,8.46
2022-12-26T00:15:33.207Z,8.40
2022-12-26T00:18:35.829Z,8.44
2022-12-26T00:21:38.419Z,8.46
2022-12-26T00:24:40.999Z,8.50
2022-12-26T00:27:43.591Z,8.46
2022-12-26T00:30:47.528Z,8.44
2022-12-26T00:33:50.164Z,8.39
2022-12-26T00:36:52.808Z,8.39
2022-12-26T00:39:56.192Z,8.45
2022-12-26T00:42:58.771Z,8.45
2022-12-26T00:46:03.147Z,8.24
2022-12-26T00:49:05.753Z,8.25
2022-12-26T00:52:08.391Z,8.35
2022-12-26T00:55:11.551Z,8.36
2022-12-26T00:58:14.183Z,8.22
2022-12-26T01:01:20.488Z,8.11
2022-12-26T01:04:23.222Z,8.15
2022-12-26T01:07:25.817Z,8.08
2022-12-26T01:10:29.257Z,8.21
2022-12-26T01:13:31.992Z,8.18
2022-12-26T01:16:36.041Z,8.11
2022-12-26T01:19:38.694Z,8.26
2022-12-26T01:22:41.388Z,8.25
2022-12-26T01:26:17.323Z,8.29
2022-12-26T01:29:06.587Z,8.23
2022-12-26T01:32:10.614Z,8.23
2022-12-26T01:35:13.206Z,8.18
2022-12-26T01:38:15.841Z,8.04
2022-12-26T01:41:19.857Z,8.24
2022-12-26T01:45:02.727Z,8.31
2022-12-26T01:48:16.596Z,8.38
2022-12-26T01:51:22.098Z,8.37
2022-12-26T01:54:40.935Z,8.34
2022-12-26T01:57:48.652Z,8.40
2022-12-26T02:00:52.133Z,8.37
2022-12-26T02:04:14.222Z,8.35
2022-12-26T02:07:16.868Z,8.36
2022-12-26T02:10:24.913Z,8.40
2022-12-26T02:13:30.316Z,8.34
2022-12-26T02:16:34.282Z,8.41
2022-12-26T02:19:44.368Z,8.44
2022-12-26T02:23:33.405Z,8.29
2022-12-26T02:27:11.206Z,8.25
2022-12-26T02:30:36.990Z,8.31
2022-12-26T02:33:56.229Z,8.38
2022-12-26T02:37:14.115Z,8.34
2022-12-26T02:40:30.480Z,8.40
2022-12-26T02:43:53.503Z,8.50
2022-12-26T02:47:09.199Z,8.48
2022-12-26T02:50:38.857Z,8.49
2022-12-26T02:54:07.694Z,8.60
2022-12-26T02:57:35.458Z,8.50
2022-12-26T03:00:57.823Z,8.55
2022-12-26T03:04:23.112Z,8.64
2022-12-26T03:07:46.926Z,8.54
2022-12-26T03:11:09.206Z,8.57
2022-12-26T03:14:18.257Z,8.64
2022-12-26T03:17:27.688Z,8.68
2022-12-26T03:20:34.459Z,8.65
2022-12-26T03:23:40.779Z,8.58
2022-12-26T03:26:48.261Z,8.65
2022-12-26T03:30:08.516Z,8.65
2022-12-26T03:33:31.490Z,8.72
2022-12-26T03:36:48.067Z,8.64
2022-12-26T03:40:17.363Z,8.69
2022-12-26T03:43:50.441Z,8.53
2022-12-26T03:47:23.782Z,8.69
2022-12-26T03:50:51.706Z,8.66
2022-12-26T03:54:23.212Z,8.63
2022-12-26T03:57:51.730Z,8.64
2022-12-26T04:01:14.975Z,8.77
2022-12-26T04:04:37.212Z,8.78
2022-12-26T04:08:00.180Z,8.81
2022-12-26T04:11:22.905Z,8.80
2022-12-26T04:15:00.439Z,8.77
2022-12-26T04:18:24.249Z,8.85
2022-12-26T04:21:49.638Z,8.80
2022-12-26T04:25:15.178Z,8.62
2022-12-26T04:28:37.235Z,8.60
2022-12-26T04:32:03.972Z,8.69
2022-12-26T04:35:31.655Z,8.41
2022-12-26T04:38:57.863Z,8.45
2022-12-26T04:42:18.982Z,8.65
2022-12-26T04:45:24.034Z,8.65
2022-12-26T04:48:44.220Z,8.61
2022-12-26T04:51:46.807Z,8.63
2022-12-26T04:54:50.790Z,8.73
2022-12-26T04:57:54.331Z,8.65
2022-12-26T05:01:18.888Z,8.48
2022-12-26T05:04:39.008Z,8.66
2022-12-26T05:08:10.732Z,8.50
2022-12-26T05:11:13.298Z,8.60
2022-12-26T05:14:15.895Z,8.51
2022-12-26T05:17:37.459Z,8.51
2022-12-26T05:20:58.248Z,8.47
2022-12-26T05:24:20.889Z,8.51
2022-12-26T05:27:41.883Z,8.47
2022-12-26T05:30:44.642Z,8.52
2022-12-26T05:34:06.602Z,8.47
2022-12-26T05:37:09.903Z,8.58
2022-12-26T05:40:13.039Z,8.71
2022-12-26T05:43:15.600Z,8.54
2022-12-26T05:46:18.268Z,8.52
2022-12-26T05:49:22.233Z,8.66
2022-12-26T05:52:24.821Z,8.74
2022-12-26T05:55:27.891Z,8.52
2022-12-26T05:58:30.485Z,8.69
2022-12-26T06:01:33.103Z,8.74
2022-12-26T06:04:37.398Z,8.44
2022-12-26T06:07:39.959Z,8.66
2022-12-26T06:10:42.531Z,8.81
2022-12-26T06:13:45.460Z,8.75
2022-12-26T06:16:48.140Z,8.87
2022-12-26T06:19:52.172Z,8.81
2022-12-26T06:22:54.795Z,8.73
2022-12-26T06:25:58.379Z,8.70
2022-12-26T06:29:00.967Z,8.72
2022-12-26T06:32:04.581Z,8.55
2022-12-26T06:35:09.527Z,8.57
2022-12-26T06:38:12.920Z,8.85
2022-12-26T06:41:17.577Z,8.92
2022-12-26T06:44:20.276Z,8.88
2022-12-26T06:47:22.885Z,8.94
2022-12-26T06:50:27.401Z,8.91
2022-12-26T06:53:29.981Z,8.96
2022-12-26T06:56:34.175Z,8.91
2022-12-26T06:59:36.761Z,8.97
2022-12-26T07:02:39.530Z,9.13
2022-12-26T07:05:43.577Z,8.99
2022-12-26T07:08:46.178Z,9.06
2022-12-26T07:11:50.651Z,8.86
2022-12-26T07:14:56.682Z,8.63
2022-12-26T07:18:03.881Z,8.79
2022-12-26T07:21:09.468Z,8.70
2022-12-26T07:24:16.135Z,8.76
2022-12-26T07:27:18.710Z,8.78
2022-12-26T07:30:21.302Z,8.63
2022-12-26T07:33:24.492Z,8.55
2022-12-26T07:36:28.409Z,8.43
2022-12-26T07:39:31.136Z,8.53
2022-12-26T07:42:33.724Z,8.64
2022-12-26T07:45:41.874Z,8.74
2022-12-26T07:48:47.772Z,8.61
2022-12-26T07:51:52.236Z,8.77
2022-12-26T07:54:54.799Z,8.77
2022-12-26T07:57:57.385Z,8.87
2022-12-26T08:01:01.812Z,8.90
2022-12-26T08:04:04.818Z,8.87
2022-12-26T08:07:09.020Z,8.98
2022-12-26T08:10:11.626Z,9.15
2022-12-26T08:13:14.261Z,9.17
2022-12-26T08:16:17.841Z,9.22
2022-12-26T08:19:20.522Z,9.21
2022-12-26T08:22:24.483Z,9.19
2022-12-26T08:25:27.089Z,9.18
2022-12-26T08:28:29.655Z,9.24
2022-12-26T08:31:32.289Z,9.19
2022-12-26T08:34:35.489Z,9.23
2022-12-26T08:37:39.453Z,9.16
2022-12-26T08:40:43.660Z,9.02
2022-12-26T08:47:12.469Z,9.24
2022-12-26T08:50:16.058Z,9.33
2022-12-26T08:53:20.056Z,9.42
2022-12-26T08:56:25.046Z,9.25
2022-12-26T08:59:27.637Z,9.19
2022-12-26T09:02:30.348Z,9.13
2022-12-26T09:05:33.342Z,8.98
2022-12-26T09:08:38.608Z,9.10
2022-12-26T09:11:43.203Z,9.09
2022-12-26T09:14:50.147Z,9.20
2022-12-26T09:17:52.946Z,9.26
2022-12-26T09:20:55.512Z,9.24
2022-12-26T09:24:01.617Z,9.20
2022-12-26T09:27:04.305Z,9.12
2022-12-26T09:30:07.931Z,9.16
2022-12-26T09:33:10.534Z,9.31
2022-12-26T09:36:15.626Z,9.14
2022-12-26T09:39:19.592Z,9.25
2022-12-26T09:42:32.909Z,9.21
2022-12-26T09:45:56.146Z,9.15
2022-12-26T09:49:03.430Z,9.28
2022-12-26T09:52:12.490Z,9.30
2022-12-26T09:55:36.246Z,9.15
2022-12-26T09:58:45.563Z,9.18
2022-12-26T10:01:49.139Z,9.16
2022-12-26T10:04:52.641Z,9.13
2022-12-26T10:08:00.715Z,9.14
2022-12-26T10:11:08.737Z,9.25
2022-12-26T10:14:21.564Z,9.20
2022-12-26T10:17:32.140Z,9.31
2022-12-26T10:20:46.168Z,9.38
2022-12-26T10:23:52.434Z,9.54
2022-12-26T10:27:01.299Z,9.57
2022-12-26T10:30:09.007Z,9.63
2022-12-26T10:33:17.848Z,9.63
2022-12-26T10:36:30.456Z,9.49
2022-12-26T10:39:38.408Z,9.51
2022-12-26T10:42:44.092Z,9.64
2022-12-26T10:45:55.420Z,9.54
2022-12-26T10:48:58.573Z,9.74
2022-12-26T10:52:03.418Z,9.59
2022-12-26T10:55:29.471Z,9.53
2022-12-26T10:58:34.813Z,9.39
2022-12-26T11:01:40.003Z,9.55
2022-12-26T11:05:27.269Z,9.49
2022-12-26T11:08:25.027Z,9.67
2022-12-26T11:11:45.555Z,9.55
2022-12-26T11:14:50.093Z,9.49
2022-12-26T11:17:54.189Z,9.51
2022-12-26T11:21:12.892Z,9.71
2022-12-26T11:24:20.421Z,9.89
2022-12-26T11:27:25.412Z,9.98
2022-12-26T11:30:32.585Z,9.86
2022-12-26T11:33:37.749Z,9.74
2022-12-26T11:36:47.282Z,9.73
2022-12-26T11:39:52.461Z,9.66
2022-12-26T11:42:57.997Z,9.73
2022-12-26T11:46:02.165Z,9.52
2022-12-26T11:49:06.221Z,9.54
2022-12-26T11:52:37.309Z,9.43
2022-12-26T11:55:40.509Z,9.40
2022-12-26T11:58:44.170Z,9.46
2022-12-26T12:01:48.234Z,9.61
2022-12-26T12:04:53.165Z,9.65
2022-12-26T12:08:12.371Z,9.64
2022-12-26T12:11:23.330Z,9.67
2022-12-26T12:14:35.944Z,9.52
2022-12-26T12:17:47.632Z,9.56
2022-12-26T12:21:05.415Z,9.51
2022-12-26T12:24:39.805Z,9.37
2022-12-26T12:27:49.228Z,9.45
2022-12-26T12:31:04.195Z,9.37
2022-12-26T12:34:20.659Z,9.43
2022-12-26T12:37:31.637Z,9.46
2022-12-26T12:40:42.856Z,9.43
2022-12-26T12:43:54.957Z,9.42
2022-12-26T12:47:08.264Z,9.39
2022-12-26T12:50:19.349Z,9.53
2022-12-26T12:53:41.931Z,9.44
2022-12-26T12:56:50.524Z,9.44
2022-12-26T13:00:04.543Z,9.56
2022-12-26T13:03:12.471Z,9.38
2022-12-26T13:06:19.271Z,9.43
2022-12-26T13:09:26.881Z,9.27
2022-12-26T13:12:34.857Z,9.45
2022-12-26T13:15:41.229Z,9.60
2022-12-26T13:18:50.812Z,9.58
2022-12-26T13:22:01.564Z,9.40
2022-12-26T13:25:03.749Z,9.31
2022-12-26T13:28:16.576Z,9.29
2022-12-26T13:31:19.420Z,9.28
2022-12-26T13:34:22.797Z,9.23
2022-12-26T13:37:59.522Z,9.26
2022-12-26T13:41:18.254Z,9.34
2022-12-26T13:44:28.294Z,9.45
2022-12-26T13:47:36.446Z,9.42
2022-12-26T13:50:55.362Z,9.40
2022-12-26T13:54:09.780Z,9.33
2022-12-26T13:57:27.976Z,9.11
2022-12-26T14:00:45.259Z,8.96
2022-12-26T14:04:00.529Z,8.82
2022-12-26T14:07:19.032Z,8.67
2022-12-26T14:10:31.761Z,8.57
2022-12-26T14:13:51.173Z,8.54
2022-12-26T14:17:01.413Z,8.28
2022-12-26T14:20:19.506Z,8.37
2022-12-26T14:23:40.887Z,8.18
2022-12-26T14:26:52.089Z,8.11
2022-12-26T14:30:18.306Z,7.95
2022-12-26T14:33:30.080Z,7.89
2022-12-26T14:36:41.751Z,7.86
2022-12-26T14:40:06.076Z,7.86
2022-12-26T14:43:32.683Z,7.50
2022-12-26T14:46:58.442Z,7.67
2022-12-26T14:50:41.735Z,7.30
2022-12-26T14:53:45.848Z,7.28
2022-12-26T14:56:49.919Z,7.37
2022-12-26T15:00:16.224Z,7.33
2022-12-26T15:03:31.360Z,7.12
2022-12-26T15:06:59.259Z,7.10
2022-12-26T15:10:34.614Z,7.21
2022-12-26T15:14:24.572Z,7.28
2022-12-26T15:17:38.137Z,7.37
2022-12-26T15:21:02.751Z,7.36
2022-12-26T15:25:17.705Z,7.08
2022-12-26T15:28:37.953Z,6.85
2022-12-26T15:31:53.511Z,6.85
2022-12-26T15:35:12.004Z,6.94
2022-12-26T15:38:30.551Z,6.73
2022-12-26T15:41:40.174Z,6.71
2022-12-26T15:44:50.776Z,6.70
2022-12-26T15:48:03.105Z,6.83
2022-12-26T15:51:13.384Z,6.86
2022-12-26T15:54:28.511Z,6.94
2022-12-26T15:57:41.808Z,6.92
2022-12-26T16:00:50.749Z,6.79
2022-12-26T16:03:57.743Z,6.82
2022-12-26T16:07:09.471Z,6.75
2022-12-26T16:10:29.279Z,6.80
2022-12-26T16:13:32.409Z,6.75
2022-12-26T16:16:37.561Z,6.58
2022-12-26T16:19:41.467Z,6.58
2022-12-26T16:22:46.280Z,6.62
2022-12-26T16:25:49.899Z,6.65
2022-12-26T16:28:54.132Z,6.59
2022-12-26T16:32:03.559Z,6.68
2022-12-26T16:35:07.932Z,6.63
2022-12-26T16:38:16.668Z,6.55
2022-12-26T16:41:21.987Z,6.59
2022-12-26T16:44:31.604Z,6.70
2022-12-26T16:47:34.596Z,6.42
2022-12-26T16:50:46.983Z,6.54
2022-12-26T16:53:50.973Z,6.46
2022-12-26T16:56:58.339Z,6.54
2022-12-26T17:00:01.099Z,6.53
2022-12-26T17:03:10.591Z,6.46
2022-12-26T17:06:16.845Z,6.48
2022-12-26T17:09:23.520Z,6.52
2022-12-26T17:12:30.639Z,6.54
2022-12-26T17:15:36.369Z,6.63
2022-12-26T17:18:47.579Z,6.87
2022-12-26T17:22:22.619Z,7.04
2022-12-26T17:25:29.497Z,6.77
2022-12-26T17:28:32.093Z,6.83
2022-12-26T17:31:39.068Z,6.82
2022-12-26T17:34:42.328Z,6.82
2022-12-26T17:37:46.607Z,6.58
2022-12-26T17:40:54.376Z,6.72
2022-12-26T17:43:57.550Z,6.63
2022-12-26T17:47:02.776Z,6.42
2022-12-26T17:50:05.999Z,6.34
2022-12-26T17:53:17.595Z,6.55
2022-12-26T17:56:27.107Z,6.32
2022-12-26T17:59:29.704Z,6.13
2022-12-26T18:02:32.407Z,6.10
2022-12-26T18:05:36.036Z,6.31
2022-12-26T18:08:41.252Z,6.34
2022-12-26T18:11:45.181Z,6.45
2022-12-26T18:14:47.765Z,6.13
2022-12-26T18:17:52.182Z,6.15
2022-12-26T18:20:54.783Z,6.14
2022-12-26T18:23:57.384Z,6.02
2022-12-26T18:27:01.593Z,6.09
2022-12-26T18:30:04.737Z,5.86
2022-12-26T18:33:07.379Z,6.24
2022-12-26T18:36:12.288Z,5.96
2022-12-26T18:39:16.298Z,6.07
2022-12-26T18:42:20.341Z,5.93
2022-12-26T18:45:22.960Z,5.85
2022-12-26T18:48:25.771Z,5.91
2022-12-26T18:51:28.769Z,5.85
2022-12-26T18:54:31.366Z,5.91
2022-12-26T18:57:35.306Z,5.62
2022-12-26T19:00:38.000Z,5.59
2022-12-26T19:03:40.929Z,5.66
2022-12-26T19:06:43.661Z,5.67
2022-12-26T19:09:47.003Z,5.58
2022-12-26T19:12:51.130Z,5.59
2022-12-26T19:15:53.713Z,5.54
2022-12-26T19:18:56.304Z,5.47
2022-12-26T19:21:59.056Z,5.58
2022-12-26T19:25:01.686Z,5.40
2022-12-26T19:28:06.539Z,5.27
2022-12-26T19:31:10.826Z,5.60
2022-12-26T19:34:13.547Z,5.54
2022-12-26T19:37:16.151Z,5.49
2022-12-26T19:40:24.773Z,5.54
2022-12-26T19:43:29.239Z,5.34
2022-12-26T19:46:31.878Z,5.27
2022-12-26T19:49:34.498Z,5.39
2022-12-26T19:52:38.213Z,5.39
2022-12-26T19:55:40.942Z,5.52
2022-12-26T19:58:45.401Z,5.64
2022-12-26T20:01:48.166Z,5.45
2022-12-26T20:04:50.798Z,5.42
2022-12-26T20:07:53.414Z,5.51
2022-12-26T20:11:00.712Z,5.57
2022-12-26T20:14:07.236Z,5.69
2022-12-26T20:17:12.250Z,5.41
2022-12-26T20:20:14.917Z,5.45
2022-12-26T20:23:17.569Z,5.53
2022-12-26T20:26:22.930Z,5.38
2022-12-26T20:29:27.013Z,5.51
2022-12-26T20:32:29.578Z,5.62
2022-12-26T20:35:32.174Z,5.46
2022-12-26T20:38:35.600Z,5.46
2022-12-26T20:41:38.827Z,5.43
2022-12-26T20:44:42.927Z,5.30
2022-12-26T20:47:45.530Z,5.32
2022-12-26T20:50:56.443Z,5.16
2022-12-26T20:53:59.273Z,5.17
2022-12-26T20:57:02.852Z,5.06
2022-12-26T21:00:08.621Z,5.22
2022-12-26T21:03:11.318Z,4.89
2022-12-26T21:06:16.099Z,5.01
2022-12-26T21:09:18.887Z,4.92
2022-12-26T21:12:21.496Z,5.04
2022-12-26T21:15:25.527Z,5.01
2022-12-26T21:18:28.119Z,4.93
2022-12-26T21:21:32.821Z,5.08
2022-12-26T21:24:35.466Z,5.06
2022-12-26T21:27:42.702Z,5.19
2022-12-26T21:30:46.917Z,5.34
2022-12-26T21:33:49.646Z,5.33
2022-12-26T21:37:10.404Z,5.47
2022-12-26T21:40:13.363Z,5.35
2022-12-26T21:43:16.538Z,5.51
2022-12-26T21:46:21.264Z,5.51
2022-12-26T21:49:24.073Z,5.36
2022-12-26T21:52:26.646Z,5.22
2022-12-26T21:55:30.971Z,5.13
2022-12-26T21:58:54.476Z,4.91
2022-12-26T22:01:58.559Z,5.19
2022-12-26T22:05:00.721Z,5.06
2022-12-26T22:08:04.737Z,5.02
2022-12-26T22:11:35.090Z,5.13
2022-12-26T22:14:37.834Z,5.02
2022-12-26T22:17:41.837Z,5.14
2022-12-26T22:20:45.845Z,4.88
2022-12-26T22:23:50.758Z,5.19
2022-12-26T22:26:53.668Z,4.96
2022-12-26T22:29:56.280Z,4.82
2022-12-26T22:33:00.221Z,4.68
2022-12-26T22:36:07.628Z,4.85
2022-12-26T22:39:13.648Z,4.80
2022-12-26T22:42:16.270Z,4.77
2022-12-26T22:45:18.847Z,4.80
2022-12-26T22:48:23.261Z,4.74
2022-12-26T22:51:27.445Z,4.61
2022-12-26T22:54:30.058Z,4.65
2022-12-26T22:57:32.677Z,4.39
2022-12-26T23:00:35.259Z,4.51
2022-12-26T23:03:39.189Z,4.46
2022-12-26T23:06:42.515Z,4.44
2022-12-26T23:09:45.593Z,4.33
2022-12-26T23:12:48.928Z,4.28
2022-12-26T23:15:56.693Z,4.54
2022-12-26T23:19:21.106Z,4.63
2022-12-26T23:22:24.173Z,4.48
2022-12-26T23:25:26.922Z,4.63
2022-12-26T23:28:47.301Z,4.50
2022-12-26T23:31:49.980Z,4.45
2022-12-26T23:34:53.896Z,4.28
2022-12-26T23:37:56.536Z,4.27
2022-12-26T23:41:00.218Z,4.50
2022-12-26T23:44:03.144Z,4.46
2022-12-26T23:47:05.956Z,4.42
2022-12-26T23:50:11.566Z,4.65
2022-12-26T23:53:14.172Z,4.57
2022-12-26T23:56:16.854Z,4.39
2022-12-26T23:59:19.871Z,4.51
